Time;durP1;ratioP1;P1;durP2;ratioP2;P2;SDS_P1;SDS_P2;PMS_P1;PMS_P2;Temp;Humidity;BMP_temperature;BMP_pressure;BME280_temperature;BME280_humidity;BME280_pressure;Samples;Min_cycle;Max_cycle;Signal;HPM_P1;HPM_P2
2023/08/08 00:01:21;;;;;;;2.00;1.80;;;;;;;19.36;47.77;98875.16;6863131;28;20708;-79
2023/08/08 00:04:42;;;;;;;4.30;2.13;;;;;;;19.61;47.48;98875.34;6863152;28;20233;-80
2023/08/08 00:08:04;;;;;;;2.47;2.00;;;;;;;19.77;46.92;98879.03;6862336;28;20555;-80
2023/08/08 00:11:27;;;;;;;3.07;1.83;;;;;;;18.95;48.47;98880.41;6864701;28;20655;-83
2023/08/08 00:14:49;;;;;;;2.10;1.73;;;;;;;19.68;47.09;98884.16;6866972;28;20219;-82
2023/08/08 00:18:11;;;;;;;3.67;2.00;;;;;;;19.59;47.28;98877.53;6859672;28;20280;-82
2023/08/08 00:21:33;;;;;;;2.27;2.07;;;;;;;19.48;47.32;98856.66;6867709;28;20272;-81
2023/08/08 00:24:54;;;;;;;3.40;2.00;;;;;;;19.54;47.51;98884.84;6865134;28;20777;-80
2023/08/08 00:28:17;;;;;;;2.67;2.00;;;;;;;19.84;46.62;98887.84;6861658;28;20291;-80
2023/08/08 00:31:39;;;;;;;2.10;1.70;;;;;;;19.49;47.58;98885.66;6862192;28;20323;-80
2023/08/08 00:35:00;;;;;;;2.60;1.87;;;;;;;19.49;47.85;98882.06;6853666;28;20418;-80
2023/08/08 00:38:22;;;;;;;2.33;2.00;;;;;;;19.87;47.04;98879.91;6861694;28;20714;-81
2023/08/08 00:41:44;;;;;;;2.80;2.13;;;;;;;19.90;47.19;98884.06;6861554;28;20266;-81
2023/08/08 00:45:08;;;;;;;2.30;2.10;;;;;;;19.75;47.73;98870.28;6851066;28;20320;-80
2023/08/08 00:48:29;;;;;;;3.33;2.10;;;;;;;19.58;48.46;98883.25;6860761;28;20855;-80
2023/08/08 00:51:51;;;;;;;4.10;2.17;;;;;;;19.31;49.47;98880.56;6861048;28;20264;-80
2023/08/08 00:55:16;;;;;;;2.10;1.90;;;;;;;19.46;49.28;98871.66;6848661;28;20615;-80
2023/08/08 00:58:37;;;;;;;2.47;2.27;;;;;;;19.29;49.01;98835.41;6834633;28;20284;-80
2023/08/08 01:02:00;;;;;;;3.23;2.00;;;;;;;19.66;48.62;98866.34;6835209;28;20316;-80
2023/08/08 01:05:22;;;;;;;4.23;2.20;;;;;;;19.69;47.72;98865.84;6834715;28;20201;-80
2023/08/08 01:08:48;;;;;;;2.27;1.90;;;;;;;19.59;48.08;98863.84;6834733;28;20218;-80
2023/08/08 01:12:12;;;;;;;2.23;2.03;;;;;;;19.57;47.60;98848.78;6834276;28;20710;-80
2023/08/08 01:15:35;;;;;;;3.47;2.07;;;;;;;19.81;47.18;98845.41;6838645;28;20292;-83
2023/08/08 01:18:58;;;;;;;2.33;2.13;;;;;;;19.71;47.49;98858.19;6838095;28;20206;-82
2023/08/08 01:22:24;;;;;;;2.67;1.87;;;;;;;19.87;47.21;98868.16;6838248;28;20289;-83
2023/08/08 01:25:47;;;;;;;3.37;2.03;;;;;;;19.88;47.31;98867.06;6836978;28;20214;-83
2023/08/08 01:29:09;;;;;;;2.30;2.10;;;;;;;20.03;46.80;98861.69;6839657;28;20213;-83
2023/08/08 01:32:30;;;;;;;1.90;1.80;;;;;;;19.84;47.38;98847.63;6851293;28;20224;-82
2023/08/08 01:35:55;;;;;;;2.10;1.90;;;;;;;19.98;46.93;98837.84;6860270;28;20271;-82
2023/08/08 01:39:20;;;;;;;2.47;2.17;;;;;;;19.81;47.32;98863.75;6863447;28;20709;-83
2023/08/08 01:42:44;;;;;;;2.67;1.93;;;;;;;19.92;47.04;98843.59;6864074;28;20823;-81
2023/08/08 01:46:07;;;;;;;1.97;1.83;;;;;;;19.77;47.11;98825.16;6860502;28;20738;-83
2023/08/08 01:49:28;;;;;;;2.67;2.23;;;;;;;19.83;47.02;98817.78;6871724;28;20276;-83
2023/08/08 01:52:50;;;;;;;2.20;2.00;;;;;;;20.12;46.80;98850.03;6868346;28;20795;-84
2023/08/08 01:56:11;;;;;;;1.90;1.80;;;;;;;20.01;46.92;98842.81;6867840;28;20304;-81
2023/08/08 01:59:34;;;;;;;3.87;2.20;;;;;;;20.07;46.88;98825.38;6867431;28;20296;-81
2023/08/08 02:02:55;;;;;;;2.23;1.70;;;;;;;20.18;46.83;98834.44;6867598;28;20327;-81
2023/08/08 02:06:17;;;;;;;1.93;1.80;;;;;;;19.44;47.59;98809.03;6867678;28;20309;-81
2023/08/08 02:09:38;;;;;;;2.20;2.00;;;;;;;19.91;47.46;98836.44;6867129;28;20208;-81
2023/08/08 02:13:00;;;;;;;2.53;1.90;;;;;;;20.13;46.82;98835.25;6867180;28;20356;-81
2023/08/08 02:16:23;;;;;;;2.43;2.07;;;;;;;20.04;47.23;98825.03;6865800;28;20291;-81
2023/08/08 02:19:44;;;;;;;2.30;2.10;;;;;;;19.68;48.07;98818.50;6840574;28;20337;-81
2023/08/08 02:23:06;;;;;;;2.07;1.87;;;;;;;20.07;47.60;98832.75;6840297;28;20319;-81
2023/08/08 02:26:27;;;;;;;1.93;1.80;;;;;;;20.00;47.71;98821.19;6838661;28;20293;-81
2023/08/08 02:29:49;;;;;;;2.13;1.93;;;;;;;19.97;48.38;98822.53;6839035;28;20352;-81
2023/08/08 02:33:12;;;;;;;2.77;2.03;;;;;;;19.86;48.77;98825.47;6839071;28;20370;-82
2023/08/08 02:36:34;;;;;;;2.30;2.07;;;;;;;19.84;49.33;98833.09;6837074;28;20260;-82
2023/08/08 02:39:55;;;;;;;3.27;1.97;;;;;;;19.28;50.55;98820.91;6838883;29;20198;-82
2023/08/08 02:43:17;;;;;;;2.27;1.90;;;;;;;19.75;48.82;98830.03;6838707;28;20360;-81
2023/08/08 02:46:38;;;;;;;2.80;2.00;;;;;;;19.90;48.23;98826.59;6838269;28;20308;-82
2023/08/08 02:50:01;;;;;;;2.23;2.03;;;;;;;19.95;47.90;98830.19;6838415;28;20297;-82
2023/08/08 02:53:23;;;;;;;3.70;1.90;;;;;;;19.90;48.00;98829.31;6837927;28;20268;-82
2023/08/08 02:56:44;;;;;;;2.90;2.00;;;;;;;19.42;48.04;98742.00;6837013;28;20345;-81
2023/08/08 03:00:08;;;;;;;2.23;2.03;;;;;;;19.93;47.40;98801.44;6837844;28;20253;-80
2023/08/08 03:03:29;;;;;;;2.47;2.10;;;;;;;19.90;48.83;98821.94;6837831;28;20261;-81
2023/08/08 03:06:52;;;;;;;2.30;2.10;;;;;;;19.68;49.55;98820.41;6837210;28;20245;-80
2023/08/08 03:10:14;;;;;;;2.07;1.87;;;;;;;18.74;51.16;98822.00;6837490;28;20303;-80
2023/08/08 03:13:37;;;;;;;3.10;1.87;;;;;;;19.61;49.38;98817.06;6837961;28;20301;-81
2023/08/08 03:16:58;;;;;;;4.87;2.20;;;;;;;19.57;50.15;98824.19;6836906;28;20206;-80
2023/08/08 03:20:20;;;;;;;4.67;2.20;;;;;;;19.73;49.64;98820.44;6837276;28;20370;-80
2023/08/08 03:23:44;;;;;;;1.97;1.87;;;;;;;18.58;50.03;98672.69;6837098;28;20360;-81
2023/08/08 03:27:06;;;;;;;2.37;2.00;;;;;;;19.24;50.42;98780.69;6837009;28;20269;-81
2023/08/08 03:30:28;;;;;;;2.40;2.20;;;;;;;18.62;51.25;98709.34;6837022;28;20324;-80
2023/08/08 03:33:49;;;;;;;4.07;2.47;;;;;;;18.45;51.91;98726.94;6854742;28;20355;-79
2023/08/08 03:37:23;;;;;;;2.40;2.20;;;;;;;19.22;51.72;98826.63;6861180;28;20243;-80
2023/08/08 03:40:46;;;;;;;2.20;2.00;;;;;;;18.61;51.80;98751.41;6862697;28;20322;-80
2023/08/08 03:44:07;;;;;;;2.73;2.53;;;;;;;19.13;51.76;98814.47;6863193;28;20356;-81
2023/08/08 03:47:30;;;;;;;3.27;2.40;;;;;;;18.84;52.22;98802.16;6856303;28;20240;-80
2023/08/08 03:50:51;;;;;;;2.47;2.13;;;;;;;18.16;52.34;98681.81;6862731;28;20809;-80
2023/08/08 03:54:13;;;;;;;2.23;2.10;;;;;;;18.65;53.22;98820.81;6862377;28;20245;-80
2023/08/08 03:57:36;;;;;;;3.23;2.17;;;;;;;19.05;52.44;98825.88;6862402;28;20203;-79
2023/08/08 04:00:57;;;;;;;3.47;2.27;;;;;;;19.23;51.23;98817.31;6863156;28;20320;-80
2023/08/08 04:04:19;;;;;;;3.40;2.50;;;;;;;18.73;53.33;98823.09;6862756;28;20239;-80
2023/08/08 04:07:40;;;;;;;2.53;2.33;;;;;;;18.18;52.61;98720.59;6862114;28;20299;-81
2023/08/08 04:11:02;;;;;;;2.90;2.30;;;;;;;19.21;51.91;98814.03;6864319;28;20232;-83
2023/08/08 04:14:25;;;;;;;3.50;2.10;;;;;;;19.40;51.05;98831.69;6865118;28;20298;-82
2023/08/08 04:17:46;;;;;;;3.50;2.40;;;;;;;18.77;53.44;98834.31;6864567;28;20254;-82
2023/08/08 04:21:08;;;;;;;2.47;2.27;;;;;;;19.21;52.70;98825.78;6865406;28;20376;-83
2023/08/08 04:24:29;;;;;;;2.43;2.23;;;;;;;19.41;52.00;98825.13;6863429;28;20282;-81
2023/08/08 04:27:51;;;;;;;3.97;2.40;;;;;;;19.23;52.60;98831.81;6862767;28;20307;-81
2023/08/08 04:31:14;;;;;;;2.47;2.23;;;;;;;18.55;53.38;98760.63;6863502;28;20777;-81
2023/08/08 04:34:35;;;;;;;3.37;2.27;;;;;;;19.40;50.64;98826.22;6861628;28;20306;-82
2023/08/08 04:37:57;;;;;;;2.50;2.27;;;;;;;19.64;49.70;98831.03;6869248;28;20238;-81
2023/08/08 04:41:18;;;;;;;2.00;1.90;;;;;;;19.96;49.02;98822.78;6864197;28;20258;-81
2023/08/08 04:44:40;;;;;;;2.03;1.83;;;;;;;19.93;49.66;98826.06;6864230;28;20627;-81
2023/08/08 04:48:02;;;;;;;2.23;1.90;;;;;;;20.06;49.96;98828.31;6863245;28;20304;-82
2023/08/08 04:51:24;;;;;;;2.43;2.17;;;;;;;20.00;50.69;98832.97;6863477;28;20237;-84
2023/08/08 04:54:45;;;;;;;3.50;2.20;;;;;;;19.82;51.83;98840.75;6863946;28;20333;-81
2023/08/08 04:58:07;;;;;;;3.03;2.50;;;;;;;19.85;51.63;98835.59;6856279;28;20301;-81
2023/08/08 05:01:28;;;;;;;2.40;2.20;;;;;;;19.98;50.44;98846.06;6878172;28;20717;-81
2023/08/08 05:04:51;;;;;;;4.60;2.50;;;;;;;19.93;51.30;98834.28;6888626;28;20319;-81
2023/08/08 05:08:13;;;;;;;3.07;2.50;;;;;;;19.73;52.53;98826.75;6870134;28;20272;-81
2023/08/08 05:11:34;;;;;;;2.33;2.13;;;;;;;19.45;51.84;98843.47;6884483;28;20229;-82
2023/08/08 05:14:56;;;;;;;3.27;1.83;;;;;;;20.10;50.47;98838.50;6862126;28;20208;-80
2023/08/08 05:18:17;;;;;;;1.90;1.80;;;;;;;20.30;49.52;98808.50;6862903;28;20255;-81
2023/08/08 05:21:40;;;;;;;3.20;2.10;;;;;;;19.99;49.72;98798.44;6865267;28;20311;-82
2023/08/08 05:25:02;;;;;;;2.37;2.17;;;;;;;19.75;50.77;98807.34;6866466;28;20225;-82
2023/08/08 05:28:24;;;;;;;2.40;2.20;;;;;;;20.51;48.83;98825.84;6880772;28;20728;-82
2023/08/08 05:31:45;;;;;;;2.50;2.20;;;;;;;20.45;48.74;98781.16;6872077;28;20259;-81
2023/08/08 05:35:08;;;;;;;2.73;2.53;;;;;;;21.13;47.41;98832.06;6867242;28;20296;-82
2023/08/08 05:38:30;;;;;;;2.20;1.97;;;;;;;21.48;46.31;98821.97;6866936;28;22609;-82
2023/08/08 05:41:52;;;;;;;2.37;2.17;;;;;;;21.60;46.12;98826.03;6872576;28;20229;-82
2023/08/08 05:45:14;;;;;;;3.50;2.20;;;;;;;22.09;44.99;98835.38;6884975;28;20314;-80
2023/08/08 05:48:38;;;;;;;3.53;2.20;;;;;;;21.93;44.46;98832.91;6863735;28;20213;-81
2023/08/08 05:51:59;;;;;;;2.30;2.10;;;;;;;22.15;44.13;98831.50;6874207;28;20316;-78
2023/08/08 05:55:22;;;;;;;3.83;3.43;;;;;;;22.29;44.71;98827.06;6864717;28;20286;-80
2023/08/08 05:58:44;;;;;;;2.57;2.20;;;;;;;22.39;44.30;98831.69;6852245;28;20320;-79
2023/08/08 06:02:05;;;;;;;4.87;2.17;;;;;;;22.13;44.87;98850.16;6867717;28;20232;-79
2023/08/08 06:05:28;;;;;;;2.17;1.97;;;;;;;22.11;44.00;98813.94;6857745;28;20626;-78
2023/08/08 06:08:49;;;;;;;3.03;1.90;;;;;;;22.05;43.21;98853.50;6864938;28;20660;-78
2023/08/08 06:12:12;;;;;;;2.97;2.00;;;;;;;21.86;43.53;98852.41;6866329;28;20262;-84
2023/08/08 06:15:34;;;;;;;2.13;1.87;;;;;;;22.64;42.12;98834.34;6867114;28;20283;-83
2023/08/08 06:18:55;;;;;;;3.00;2.00;;;;;;;22.83;42.74;98838.13;6867571;28;20217;-83
2023/08/08 06:22:17;;;;;;;1.97;1.63;;;;;;;23.43;40.86;98838.56;6869140;28;20268;-81
2023/08/08 06:25:39;;;;;;;2.10;1.87;;;;;;;22.86;42.29;98816.38;6868672;28;20330;-81
2023/08/08 06:29:01;;;;;;;2.00;1.87;;;;;;;23.17;41.46;98828.03;6869068;28;20563;-82
2023/08/08 06:32:23;;;;;;;2.47;2.17;;;;;;;23.58;40.08;98824.69;6868188;28;20631;-81
2023/08/08 06:35:45;;;;;;;2.43;1.80;;;;;;;23.46;41.08;98820.66;6867506;28;20214;-82
2023/08/08 06:39:07;;;;;;;2.80;1.80;;;;;;;23.47;39.68;98825.88;6867037;28;20250;-82
2023/08/08 06:42:28;;;;;;;2.30;1.80;;;;;;;23.23;40.58;98819.47;6869697;28;20290;-81
2023/08/08 06:45:51;;;;;;;2.80;2.20;;;;;;;22.77;42.10;98831.81;6871691;28;20264;-80
2023/08/08 06:49:12;;;;;;;2.63;2.10;;;;;;;22.56;42.42;98835.78;6871368;28;20205;-81
2023/08/08 06:52:34;;;;;;;2.47;2.07;;;;;;;22.87;41.60;98807.03;6866720;28;20233;-81
2023/08/08 06:55:56;;;;;;;2.40;2.00;;;;;;;22.96;41.41;98832.00;6859185;28;20681;-83
2023/08/08 06:59:17;;;;;;;3.00;1.93;;;;;;;22.78;42.77;98824.41;6869023;28;20293;-82
2023/08/08 07:02:41;;;;;;;1.70;1.60;;;;;;;23.08;41.49;98832.47;6872049;28;20219;-82
2023/08/08 07:06:02;;;;;;;3.97;1.93;;;;;;;23.11;42.02;98829.97;6873951;28;20236;-79
2023/08/08 07:09:24;;;;;;;3.13;2.10;;;;;;;24.23;39.85;98815.81;6896733;28;20281;-80
2023/08/08 07:12:46;;;;;;;3.20;2.37;;;;;;;23.91;40.52;98826.63;6881584;28;20326;-82
2023/08/08 07:16:07;;;;;;;2.73;2.03;;;;;;;23.66;40.90;98828.78;6872188;28;20214;-83
2023/08/08 07:19:30;;;;;;;2.30;2.00;;;;;;;23.57;40.55;98831.31;6871562;28;20209;-80
2023/08/08 07:22:52;;;;;;;2.17;1.97;;;;;;;23.72;41.04;98825.66;6894272;28;20277;-81
2023/08/08 07:26:13;;;;;;;2.03;1.73;;;;;;;24.20;39.59;98819.13;6885970;28;20245;-83
2023/08/08 07:29:35;;;;;;;2.93;2.10;;;;;;;24.01;39.64;98825.72;6897459;28;20458;-82
2023/08/08 07:32:57;;;;;;;6.87;2.00;;;;;;;24.76;38.51;98822.91;6895341;28;20229;-82
2023/08/08 07:36:19;;;;;;;2.20;2.00;;;;;;;24.55;39.04;98821.47;6875236;28;20238;-83
2023/08/08 07:39:41;;;;;;;3.87;1.90;;;;;;;24.58;39.60;98826.44;6874126;28;20290;-82
2023/08/08 07:43:03;;;;;;;7.00;2.03;;;;;;;25.14;38.29;98810.75;6885179;28;20894;-82
2023/08/08 07:46:24;;;;;;;3.27;2.07;;;;;;;25.27;37.51;98785.22;6880166;28;20243;-82
2023/08/08 07:49:46;;;;;;;2.10;1.90;;;;;;;25.00;38.34;98814.56;6851140;28;20364;-81
2023/08/08 07:53:09;;;;;;;2.30;2.10;;;;;;;25.22;37.98;98815.63;6840583;28;20240;-81
2023/08/08 07:56:30;;;;;;;4.93;2.40;;;;;;;25.80;36.74;98808.63;6840820;29;20670;-81
2023/08/08 07:59:52;;;;;;;3.17;1.90;;;;;;;25.24;37.44;98810.66;6840390;29;20302;-83
2023/08/08 08:03:13;;;;;;;2.70;2.10;;;;;;;25.50;36.83;98795.34;6851373;28;20257;-82
2023/08/08 08:06:35;;;;;;;2.33;2.13;;;;;;;26.15;35.82;98774.81;6861033;28;20322;-82
2023/08/08 08:09:58;;;;;;;2.87;1.67;;;;;;;26.45;34.11;98778.91;6864393;28;20272;-82
2023/08/08 08:13:19;;;;;;;3.50;1.93;;;;;;;26.18;35.45;98785.25;6865069;28;20898;-82
2023/08/08 08:16:41;;;;;;;1.70;1.60;;;;;;;25.39;36.19;98760.72;6868427;28;20256;-82
2023/08/08 08:20:09;;;;;;;1.87;1.70;;;;;;;24.81;37.25;98778.72;6866060;28;20208;-82
2023/08/08 08:23:32;;;;;;;2.27;2.00;;;;;;;24.84;37.08;98796.59;6867444;28;20654;-81
2023/08/08 08:26:55;;;;;;;2.27;1.43;;;;;;;24.50;37.46;98793.16;6864182;28;20591;-82
2023/08/08 08:30:16;;;;;;;2.13;1.70;;;;;;;24.59;36.37;98786.72;6867423;28;20226;-82
2023/08/08 08:33:38;;;;;;;4.40;2.40;;;;;;;24.59;36.71;98797.75;6867597;28;20209;-82
2023/08/08 08:37:00;;;;;;;3.63;2.07;;;;;;;24.51;37.01;98798.41;6866419;28;20309;-81
2023/08/08 08:40:21;;;;;;;5.63;3.10;;;;;;;25.04;36.46;98794.38;6860576;28;20685;-81
2023/08/08 08:43:44;;;;;;;2.77;2.40;;;;;;;25.48;35.50;98782.94;6865781;28;20669;-82
2023/08/08 08:47:10;;;;;;;5.63;2.53;;;;;;;25.45;35.68;98781.59;6864949;28;20288;-82
2023/08/08 08:50:34;;;;;;;2.23;2.03;;;;;;;25.92;34.42;98789.63;6855895;28;20231;-81
2023/08/08 08:53:55;;;;;;;1.87;1.70;;;;;;;24.90;34.96;98782.44;6850156;28;20215;-83
2023/08/08 08:57:19;;;;;;;2.23;2.03;;;;;;;25.04;35.80;98783.34;6863605;28;20345;-82
2023/08/08 09:00:43;;;;;;;2.90;1.97;;;;;;;25.70;34.19;98775.66;6863546;28;20242;-82
2023/08/08 09:04:07;;;;;;;2.57;1.87;;;;;;;25.20;35.61;98789.44;6864604;28;20693;-82
2023/08/08 09:07:29;;;;;;;2.63;2.00;;;;;;;25.78;34.38;98761.13;6856369;28;20210;-82
2023/08/08 09:10:51;;;;;;;2.00;1.80;;;;;;;25.76;35.14;98768.06;6846877;28;20306;-83
2023/08/08 09:14:17;;;;;;;3.23;2.03;;;;;;;26.64;33.14;98766.63;6867533;28;20340;-82
2023/08/08 09:17:43;;;;;;;2.03;1.73;;;;;;;27.29;31.97;98754.06;6862313;28;20209;-82
2023/08/08 09:21:05;;;;;;;2.13;1.80;;;;;;;27.38;31.28;98746.66;6869670;28;20240;-82
2023/08/08 09:24:26;;;;;;;1.70;1.60;;;;;;;26.87;32.14;98759.19;6853670;28;20253;-83
2023/08/08 09:27:48;;;;;;;1.97;1.63;;;;;;;26.66;32.71;98758.84;6860638;28;20261;-81
2023/08/08 09:31:09;;;;;;;3.30;1.90;;;;;;;27.50;31.60;98749.66;6881220;28;20235;-80
2023/08/08 09:34:33;;;;;;;4.63;2.43;;;;;;;27.65;31.77;98738.16;6869525;28;20268;-81
2023/08/08 09:37:54;;;;;;;3.43;2.30;;;;;;;26.47;33.59;98762.81;6871215;28;20209;-83
2023/08/08 09:41:16;;;;;;;2.23;1.57;;;;;;;26.96;32.89;98749.84;6868986;28;20229;-81
2023/08/08 09:44:38;;;;;;;2.13;1.63;;;;;;;27.22;31.54;98747.31;6861243;28;20808;-81
2023/08/08 09:48:00;;;;;;;2.33;2.07;;;;;;;26.60;31.48;98729.66;6868959;28;20677;-81
2023/08/08 09:51:23;;;;;;;3.20;1.60;;;;;;;26.24;31.95;98747.28;6869233;28;20244;-82
2023/08/08 09:54:44;;;;;;;2.33;1.80;;;;;;;26.83;31.05;98742.41;6874821;28;20220;-81
2023/08/08 09:58:08;;;;;;;2.97;1.67;;;;;;;27.19;31.09;98732.16;6879668;28;20216;-82
2023/08/08 10:01:29;;;;;;;3.77;1.60;;;;;;;27.28;31.45;98726.69;6877047;28;20712;-83
2023/08/08 10:04:51;;;;;;;1.83;1.67;;;;;;;27.66;30.70;98725.94;6873588;28;20260;-82
2023/08/08 10:08:15;;;;;;;3.90;1.80;;;;;;;27.47;30.66;98739.19;6877432;28;20744;-83
2023/08/08 10:11:37;;;;;;;2.23;1.57;;;;;;;26.92;31.11;98721.16;6871696;28;20706;-83
2023/08/08 10:14:59;;;;;;;4.43;1.80;;;;;;;27.19;30.84;98734.13;6866820;28;20201;-84
2023/08/08 10:18:22;;;;;;;1.63;1.53;;;;;;;28.07;29.33;98704.31;6867180;28;20201;-84
2023/08/08 10:21:45;;;;;;;5.33;4.83;;;;;;;28.60;28.96;98724.41;6866726;28;20233;-82
2023/08/08 10:25:09;;;;;;;3.60;2.83;;;;;;;28.88;27.62;98724.91;6867158;28;20226;-82
2023/08/08 10:28:33;;;;;;;23.77;12.83;;;;;;;28.82;27.50;98715.13;6851226;28;20202;-84
2023/08/08 10:31:54;;;;;;;27.60;14.30;;;;;;;28.52;29.26;98725.22;6867600;28;20356;-83
2023/08/08 10:35:16;;;;;;;28.03;12.83;;;;;;;28.37;28.72;98717.34;6867833;28;20292;-84
2023/08/08 10:38:42;;;;;;;1.90;1.70;;;;;;;28.31;28.49;98732.47;6867825;28;20241;-83
2023/08/08 10:42:05;;;;;;;2.60;1.70;;;;;;;28.18;28.42;98727.84;6871288;28;20220;-83
2023/08/08 10:45:30;;;;;;;2.13;1.47;;;;;;;27.91;28.11;98721.72;6871295;28;20248;-82
2023/08/08 10:48:53;;;;;;;2.13;1.87;;;;;;;28.68;27.97;98712.53;6872999;28;20369;-83
2023/08/08 10:52:15;;;;;;;1.70;1.60;;;;;;;29.21;27.21;98706.66;6868800;28;20234;-84
2023/08/08 10:55:38;;;;;;;2.60;1.60;;;;;;;29.30;25.60;98699.94;6859373;28;20206;-83
2023/08/08 10:59:14;;;;;;;1.70;1.60;;;;;;;28.56;25.79;98686.53;6864892;28;20281;-83
2023/08/08 11:02:35;;;;;;;3.33;1.37;;;;;;;28.60;27.08;98716.09;6871743;28;20619;-82
2023/08/08 11:05:57;;;;;;;2.70;1.67;;;;;;;27.73;27.33;98698.59;6869096;28;20262;-82
2023/08/08 11:09:19;;;;;;;3.77;1.57;;;;;;;27.85;27.13;98709.13;6868380;28;20202;-82
2023/08/08 11:12:40;;;;;;;3.90;2.23;;;;;;;27.13;28.88;98708.47;6868179;28;21710;-83
2023/08/08 11:16:03;;;;;;;2.67;1.40;;;;;;;26.69;28.53;98702.06;6865967;28;20209;-82
2023/08/08 11:19:25;;;;;;;4.47;1.70;;;;;;;27.52;28.23;98699.47;6866615;28;20296;-82
2023/08/08 11:22:52;;;;;;;4.97;1.67;;;;;;;27.03;27.47;98689.34;6868450;28;20760;-82
2023/08/08 11:26:13;;;;;;;1.90;1.70;;;;;;;27.40;27.44;98690.91;6867068;28;20241;-82
2023/08/08 11:29:50;;;;;;;2.10;1.50;;;;;;;27.81;27.71;98670.16;6867588;28;20213;-82
2023/08/08 11:33:14;;;;;;;1.47;1.20;;;;;;;28.57;25.96;98677.06;6862792;28;20221;-82
2023/08/08 11:36:36;;;;;;;2.57;1.40;;;;;;;28.75;25.36;98693.41;6863588;28;20803;-82
2023/08/08 11:39:58;;;;;;;2.47;2.27;;;;;;;29.22;25.28;98684.13;6862484;28;20240;-82
2023/08/08 11:43:32;;;;;;;1.67;1.50;;;;;;;28.34;25.79;98648.63;6863817;28;20312;-81
2023/08/08 11:46:54;;;;;;;1.73;1.43;;;;;;;29.28;24.26;98693.09;6862923;28;20717;-81
2023/08/08 11:50:20;;;;;;;1.63;1.53;;;;;;;29.63;24.57;98662.16;6858128;28;20306;-81
2023/08/08 11:53:49;;;;;;;2.63;1.70;;;;;;;29.23;24.67;98673.81;6837917;28;20317;-81
2023/08/08 11:57:11;;;;;;;2.83;1.87;;;;;;;28.30;25.73;98642.09;6889594;28;20210;-82
2023/08/08 12:00:33;;;;;;;4.37;1.70;;;;;;;28.80;25.60;98673.84;6889992;28;20274;-81
2023/08/08 12:03:55;;;;;;;3.17;1.60;;;;;;;29.32;25.02;98689.31;6861162;28;20851;-82
2023/08/08 12:07:20;;;;;;;2.43;1.27;;;;;;;28.87;23.22;98665.00;6859754;28;20308;-81
2023/08/08 12:10:49;;;;;;;3.80;1.57;;;;;;;29.57;22.91;98648.75;6860454;28;20219;-82
2023/08/08 12:14:13;;;;;;;1.20;1.13;;;;;;;29.09;23.18;98660.13;6863434;28;20822;-80
2023/08/08 12:17:35;;;;;;;3.03;1.67;;;;;;;28.76;23.84;98677.56;6862300;28;20214;-82
2023/08/08 12:20:56;;;;;;;1.60;1.30;;;;;;;28.87;24.70;98670.56;6884831;28;20222;-83
2023/08/08 12:24:19;;;;;;;3.03;2.00;;;;;;;29.03;25.27;98671.72;6873944;28;20202;-80
2023/08/08 12:27:42;;;;;;;2.10;1.53;;;;;;;29.18;25.30;98658.16;6877681;28;20261;-83
2023/08/08 12:31:03;;;;;;;1.73;1.57;;;;;;;29.14;24.82;98651.59;6836833;28;20255;-83
2023/08/08 12:34:25;;;;;;;2.40;1.43;;;;;;;29.68;23.70;98650.88;6862249;28;20192;-82
2023/08/08 12:37:46;;;;;;;1.73;1.63;;;;;;;29.60;23.49;98665.59;6863871;28;20294;-82
2023/08/08 12:41:10;;;;;;;4.10;1.50;;;;;;;29.26;23.88;98657.31;6861078;28;20367;-83
2023/08/08 12:44:32;;;;;;;1.60;1.40;;;;;;;29.45;24.93;98662.50;6862284;28;20189;-82
2023/08/08 12:47:54;;;;;;;1.80;1.70;;;;;;;28.87;24.73;98660.28;6877973;28;20705;-82
2023/08/08 12:51:16;;;;;;;3.50;1.77;;;;;;;29.12;24.66;98655.84;6867349;28;20257;-83
2023/08/08 12:54:38;;;;;;;2.33;1.50;;;;;;;29.42;24.62;98643.72;6891196;28;20241;-83
2023/08/08 12:58:02;;;;;;;2.73;1.50;;;;;;;28.46;25.10;98648.00;6885734;28;20662;-82
2023/08/08 13:01:24;;;;;;;3.87;1.70;;;;;;;28.18;25.15;98655.75;6886820;28;20254;-82
2023/08/08 13:04:46;;;;;;;2.47;1.50;;;;;;;28.08;26.25;98639.41;6864171;28;20217;-83
2023/08/08 13:08:08;;;;;;;1.50;1.40;;;;;;;28.80;26.23;98629.44;6852611;28;20321;-81
2023/08/08 13:11:29;;;;;;;2.03;1.47;;;;;;;28.96;25.27;98643.66;6854212;28;20299;-82
2023/08/08 13:14:52;;;;;;;1.90;1.63;;;;;;;29.16;25.51;98635.47;6844073;28;20215;-83
2023/08/08 13:18:14;;;;;;;1.70;1.60;;;;;;;29.67;24.24;98582.50;6861051;28;20304;-83
2023/08/08 13:21:36;;;;;;;1.83;1.53;;;;;;;29.97;24.21;98633.38;6862673;28;20310;-83
2023/08/08 13:24:57;;;;;;;1.40;1.30;;;;;;;28.95;24.16;98634.50;6864231;28;20290;-83
2023/08/08 13:28:19;;;;;;;1.63;1.53;;;;;;;28.49;24.74;98639.84;6862531;28;20218;-83
2023/08/08 13:31:42;;;;;;;2.03;1.33;;;;;;;28.62;25.47;98632.53;6863382;28;20310;-82
2023/08/08 13:35:04;;;;;;;1.87;1.67;;;;;;;28.47;25.54;98631.03;6837785;28;20241;-83
2023/08/08 13:38:26;;;;;;;2.40;1.60;;;;;;;27.73;27.41;98639.63;6860217;28;20292;-83
2023/08/08 13:41:47;;;;;;;2.43;1.80;;;;;;;28.01;27.25;98650.16;6857419;28;20260;-83
2023/08/08 13:45:10;;;;;;;2.77;1.40;;;;;;;27.31;28.53;98635.50;6862287;28;20628;-83
2023/08/08 13:48:32;;;;;;;2.33;1.80;;;;;;;27.56;28.68;98640.38;6870648;28;20207;-83
2023/08/08 13:51:54;;;;;;;3.80;1.70;;;;;;;27.25;29.68;98620.16;6867355;28;20291;-83
2023/08/08 13:55:16;;;;;;;2.73;1.83;;;;;;;27.51;29.45;98640.50;6866840;28;20220;-81
2023/08/08 13:58:37;;;;;;;2.50;1.83;;;;;;;27.74;29.84;98638.47;6859871;28;20272;-81
2023/08/08 14:01:59;;;;;;;2.40;1.50;;;;;;;27.99;29.27;98633.03;6865728;28;20266;-82
2023/08/08 14:05:22;;;;;;;2.07;1.70;;;;;;;28.71;28.09;98636.94;6840100;28;20645;-83
2023/08/08 14:08:43;;;;;;;2.33;1.83;;;;;;;28.88;28.35;98627.75;6865419;28;20211;-83
2023/08/08 14:12:05;;;;;;;2.37;1.67;;;;;;;29.05;28.34;98631.38;6865292;28;20225;-84
2023/08/08 14:15:27;;;;;;;1.90;1.53;;;;;;;29.51;27.15;98611.16;6868074;28;20255;-84
2023/08/08 14:18:48;;;;;;;1.83;1.37;;;;;;;29.65;26.14;98637.63;6863245;28;20213;-84
2023/08/08 14:22:11;;;;;;;2.87;1.70;;;;;;;28.97;27.42;98634.16;6874673;28;20300;-83
2023/08/08 14:25:33;;;;;;;1.80;1.70;;;;;;;28.92;26.66;98640.69;6874271;28;20298;-84
2023/08/08 14:28:54;;;;;;;2.20;1.57;;;;;;;28.42;27.07;98639.53;6839460;29;20253;-82
2023/08/08 14:32:16;;;;;;;1.67;1.53;;;;;;;27.56;27.84;98647.84;6837641;28;20272;-83
2023/08/08 14:35:38;;;;;;;2.07;1.83;;;;;;;27.73;27.97;98626.56;6840702;28;20205;-82
2023/08/08 14:39:01;;;;;;;2.30;1.77;;;;;;;27.66;28.58;98645.59;6864928;28;20297;-83
2023/08/08 14:42:22;;;;;;;1.57;1.47;;;;;;;27.21;29.19;98641.31;6864713;28;20259;-82
2023/08/08 14:45:44;;;;;;;3.70;1.50;;;;;;;27.36;29.00;98642.88;6837579;28;20365;-83
2023/08/08 14:49:05;;;;;;;1.50;1.40;;;;;;;27.35;29.43;98638.44;6839695;28;20301;-83
2023/08/08 14:52:27;;;;;;;3.00;1.23;;;;;;;27.52;29.51;98644.06;6863125;28;20229;-83
2023/08/08 14:55:50;;;;;;;2.77;1.63;;;;;;;27.59;29.08;98644.41;6862908;28;20371;-81
2023/08/08 14:59:11;;;;;;;2.10;1.60;;;;;;;27.36;29.40;98648.41;6864681;28;20806;-83
2023/08/08 15:02:33;;;;;;;1.93;1.50;;;;;;;27.15;29.55;98641.72;6844547;28;20767;-82
2023/08/08 15:05:55;;;;;;;4.20;1.73;;;;;;;26.83;30.58;98645.56;6842251;28;20225;-82
2023/08/08 15:09:16;;;;;;;1.70;1.60;;;;;;;26.61;31.10;98642.75;6864482;28;20255;-81
2023/08/08 15:12:40;;;;;;;3.37;1.90;;;;;;;26.98;30.71;98634.13;6864986;28;20227;-80
2023/08/08 15:16:02;;;;;;;2.03;1.70;;;;;;;27.48;30.20;98637.56;6848404;28;20209;-81
2023/08/08 15:19:23;;;;;;;2.17;1.70;;;;;;;27.30;30.79;98638.59;6865377;28;20294;-83
2023/08/08 15:22:45;;;;;;;2.27;2.07;;;;;;;27.30;30.64;98638.59;6864473;28;20319;-81
2023/08/08 15:26:06;;;;;;;3.67;2.00;;;;;;;28.01;30.04;98646.59;6863378;28;20227;-82
2023/08/08 15:29:30;;;;;;;2.87;1.70;;;;;;;27.53;30.72;98649.28;6864355;28;20355;-81
2023/08/08 15:32:51;;;;;;;1.50;1.40;;;;;;;27.07;30.39;98662.66;6866718;28;20906;-82
2023/08/08 15:36:13;;;;;;;1.97;1.57;;;;;;;26.73;31.03;98667.94;6868033;28;20564;-80
2023/08/08 15:39:35;;;;;;;3.10;2.10;;;;;;;25.80;32.47;98606.97;6865027;28;20205;-80
2023/08/08 15:42:57;;;;;;;7.10;4.20;;;;;;;26.26;32.46;98623.41;6866287;28;20229;-81
2023/08/08 15:46:20;;;;;;;2.97;1.70;;;;;;;27.03;31.38;98647.00;6863600;28;20228;-81
2023/08/08 15:49:41;;;;;;;1.70;1.60;;;;;;;26.65;31.94;98662.34;6858168;28;20213;-86
2023/08/08 15:53:04;;;;;;;4.20;2.00;;;;;;;26.80;31.00;98654.50;6837280;28;20237;-84